RJST(METAR)
08/23 01:00
METAR RJST 221600Z 21007KT 9999 FEW008 BKN150 24/23 Q1009 RMK 1ST008
5AC150 A2982=
戻る
トップページへ戻る
IMOC Co,.Ltd.